Time;durP1;ratioP1;P1;durP2;ratioP2;P2;SDS_P1;SDS_P2;PMS_P1;PMS_P2;Temp;Humidity;BMP_temperature;BMP_pressure;BME280_temperature;BME280_humidity;BME280_pressure;Samples;Min_cycle;Max_cycle;Signal;HPM_P1;HPM_P2
2023/08/24 04:22:33;;;;;;;11.32;6.97;;;;;;;20.65;87.97;100152.22;5109808;27;20327;-67
2023/08/24 04:24:58;;;;;;;7.95;6.80;;;;;;;20.69;87.95;100158.78;5109687;28;20036;-67
2023/08/24 04:27:23;;;;;;;8.73;6.60;;;;;;;20.71;88.18;100145.00;5109697;28;20036;-67
2023/08/24 04:29:49;;;;;;;9.82;6.28;;;;;;;20.74;87.86;100149.94;5109634;28;20504;-67
2023/08/24 04:32:14;;;;;;;8.88;6.10;;;;;;;20.75;87.35;100149.69;5109899;28;20092;-67
2023/08/24 04:34:39;;;;;;;11.55;6.65;;;;;;;20.80;87.33;100148.97;5109645;28;20035;-67
2023/08/24 04:37:06;;;;;;;10.48;6.20;;;;;;;20.80;87.04;100155.22;5109525;28;20111;-67
2023/08/24 04:39:32;;;;;;;8.40;6.40;;;;;;;20.83;87.25;100148.47;5109296;28;20039;-67
2023/08/24 04:41:57;;;;;;;8.32;6.35;;;;;;;20.82;87.08;100142.25;5109494;28;20039;-67
2023/08/24 04:44:24;;;;;;;9.43;6.70;;;;;;;20.86;87.25;100139.88;5109368;28;20426;-65
2023/08/24 04:46:49;;;;;;;8.23;6.40;;;;;;;20.91;85.71;100129.13;5109326;28;20038;-66
2023/08/24 04:49:15;;;;;;;8.38;5.43;;;;;;;21.02;84.43;100122.03;5109110;28;20282;-67
2023/08/24 04:51:40;;;;;;;11.82;6.30;;;;;;;21.11;83.11;100126.78;5109308;28;20035;-67
2023/08/24 04:54:06;;;;;;;7.88;5.97;;;;;;;21.16;83.17;100123.34;5109223;28;20076;-68
2023/08/24 04:56:31;;;;;;;8.07;5.38;;;;;;;21.22;82.37;100114.22;5109153;28;20111;-66
2023/08/24 04:58:58;;;;;;;6.43;5.65;;;;;;;21.31;81.87;100114.66;5108860;28;20397;-68
2023/08/24 05:01:27;;;;;;;5.90;5.35;;;;;;;21.35;81.87;100108.50;5109037;28;20036;-66
2023/08/24 05:03:53;;;;;;;8.75;5.70;;;;;;;21.37;81.48;100106.38;5109137;28;20391;-67
2023/08/24 05:06:20;;;;;;;10.32;5.50;;;;;;;21.41;81.46;100106.72;5108923;28;20429;-67
2023/08/24 05:08:45;;;;;;;7.65;5.32;;;;;;;21.42;81.46;100107.53;5108690;28;20039;-68
2023/08/24 05:11:19;;;;;;;6.10;5.43;;;;;;;21.50;80.05;100101.69;5108943;28;20036;-67
2023/08/24 05:13:45;;;;;;;9.48;5.38;;;;;;;21.59;79.95;100102.91;5108865;28;20039;-66
2023/08/24 05:16:11;;;;;;;6.60;5.32;;;;;;;21.62;79.99;100103.22;5108968;28;20092;-68
2023/08/24 05:18:36;;;;;;;9.80;5.20;;;;;;;21.73;78.87;100103.38;5108709;28;20048;-67
2023/08/24 05:21:03;;;;;;;7.45;5.18;;;;;;;21.85;77.93;100106.81;5108391;28;20063;-66
2023/08/24 05:23:29;;;;;;;5.57;5.00;;;;;;;21.95;77.42;100101.50;5108642;28;20059;-68
2023/08/24 05:25:56;;;;;;;9.38;4.97;;;;;;;22.08;76.50;100105.72;5108576;28;20046;-68
2023/08/24 05:28:21;;;;;;;6.63;4.60;;;;;;;22.17;75.60;100106.97;5108569;28;20409;-66
2023/08/24 05:30:47;;;;;;;6.60;5.18;;;;;;;22.25;76.00;100111.94;5108429;28;20035;-66
2023/08/24 05:33:12;;;;;;;6.13;4.88;;;;;;;22.28;75.93;100122.28;5098921;28;20028;-68
2023/08/24 05:35:38;;;;;;;9.13;5.03;;;;;;;22.27;76.77;100128.78;5094762;28;20108;-67
2023/08/24 05:38:03;;;;;;;6.97;4.63;;;;;;;22.29;76.21;100126.63;5094971;28;20063;-66
2023/08/24 05:40:28;;;;;;;4.95;4.20;;;;;;;22.28;77.14;100125.00;5094495;28;20444;-68
2023/08/24 05:42:54;;;;;;;6.82;5.63;;;;;;;22.31;77.95;100134.53;5094789;28;20118;-66
2023/08/24 05:45:19;;;;;;;6.07;4.60;;;;;;;22.29;77.12;100145.63;5094740;28;20039;-67
2023/08/24 05:47:45;;;;;;;7.43;4.97;;;;;;;22.26;78.13;100157.00;5094677;28;20500;-68
2023/08/24 05:50:11;;;;;;;6.15;4.88;;;;;;;22.18;79.99;100169.09;5094465;28;20044;-67
2023/08/24 05:52:37;;;;;;;7.78;4.43;;;;;;;22.15;80.93;100176.91;5094698;28;20465;-70
2023/08/24 05:55:03;;;;;;;7.65;5.47;;;;;;;22.02;81.12;100188.09;5094559;28;20040;-67
2023/08/24 05:57:28;;;;;;;7.13;5.22;;;;;;;21.95;81.92;100210.78;5093811;28;20063;-68
2023/08/24 05:59:53;;;;;;;5.63;5.00;;;;;;;21.87;82.36;100219.34;5098471;28;20028;-67
2023/08/24 06:02:19;;;;;;;6.30;4.85;;;;;;;21.89;81.64;100230.75;5094200;28;20069;-67
2023/08/24 06:04:44;;;;;;;6.68;5.20;;;;;;;21.82;81.65;100249.09;5094318;28;20065;-67
2023/08/24 06:07:10;;;;;;;5.88;4.95;;;;;;;21.83;81.99;100264.28;5094272;28;20111;-68
2023/08/24 06:09:35;;;;;;;5.95;4.88;;;;;;;21.79;82.52;100263.16;5094041;28;20408;-59
2023/08/24 06:12:00;;;;;;;6.88;5.13;;;;;;;21.71;83.25;100258.09;5093930;28;20088;-59
2023/08/24 06:14:26;;;;;;;6.35;5.07;;;;;;;21.72;83.17;100251.66;5094138;28;20051;-58
2023/08/24 06:16:53;;;;;;;6.55;4.72;;;;;;;21.71;83.99;100230.19;5094035;28;20119;-56
2023/08/24 06:19:18;;;;;;;6.93;5.32;;;;;;;21.61;84.07;100212.69;5093813;28;20371;-58
2023/08/24 06:21:44;;;;;;;8.27;5.82;;;;;;;21.55;84.84;100216.41;5093827;28;20101;-57
2023/08/24 06:24:09;;;;;;;5.30;4.53;;;;;;;21.48;85.06;100247.44;5093914;28;20039;-57
2023/08/24 06:26:35;;;;;;;8.02;5.20;;;;;;;21.53;85.10;100244.81;5093765;28;20044;-56
2023/08/24 06:29:00;;;;;;;5.80;4.93;;;;;;;21.51;85.26;100236.91;5093622;28;20036;-57
2023/08/24 06:31:26;;;;;;;7.18;4.40;;;;;;;21.35;85.52;100230.41;5093827;28;20438;-57
2023/08/24 06:33:52;;;;;;;6.78;4.70;;;;;;;21.42;85.24;100227.56;5093847;28;20032;-54
2023/08/24 06:36:18;;;;;;;8.60;4.30;;;;;;;21.40;85.04;100225.09;5093680;28;20032;-57
2023/08/24 06:38:43;;;;;;;4.85;3.72;;;;;;;21.25;84.47;100232.91;5093425;28;20635;-57
2023/08/24 06:41:11;;;;;;;5.85;4.40;;;;;;;21.28;82.87;100242.44;5093487;28;20036;-58
2023/08/24 06:43:38;;;;;;;7.47;4.65;;;;;;;21.31;82.61;100241.97;5093076;28;20067;-58
2023/08/24 06:46:07;;;;;;;8.00;3.92;;;;;;;21.37;82.06;100233.69;5093042;28;20040;-57
2023/08/24 06:48:34;;;;;;;6.03;3.90;;;;;;;21.34;81.53;100236.09;5093433;28;20036;-56
2023/08/24 06:50:59;;;;;;;5.88;4.03;;;;;;;21.37;81.56;100225.56;5093344;28;20441;-58
2023/08/24 06:53:25;;;;;;;5.40;3.80;;;;;;;21.34;82.08;100223.38;5093318;28;20040;-58
2023/08/24 06:55:55;;;;;;;6.47;4.10;;;;;;;21.35;82.08;100218.75;5093300;28;20044;-59
2023/08/24 06:58:21;;;;;;;5.15;3.65;;;;;;;21.38;82.75;100219.09;5093360;28;20032;-58
2023/08/24 07:00:46;;;;;;;5.65;3.55;;;;;;;21.40;82.33;100216.97;5084754;28;20020;-59
2023/08/24 07:03:11;;;;;;;6.90;3.90;;;;;;;21.43;82.35;100218.34;5080054;28;20077;-59
2023/08/24 07:05:37;;;;;;;5.22;3.55;;;;;;;21.45;81.69;100218.91;5081727;28;20122;-60
2023/08/24 07:08:03;;;;;;;5.70;3.85;;;;;;;21.45;81.53;100213.50;5083655;28;20028;-59
2023/08/24 07:10:28;;;;;;;9.50;3.72;;;;;;;21.52;81.87;100213.38;5081831;28;20112;-59
2023/08/24 07:12:54;;;;;;;5.10;3.90;;;;;;;21.58;81.64;100213.22;5082042;28;20169;-58
2023/08/24 07:15:19;;;;;;;5.43;3.90;;;;;;;21.67;81.87;100213.59;5083444;28;20383;-59
2023/08/24 07:17:45;;;;;;;6.57;4.03;;;;;;;21.78;82.67;100220.84;5081538;28;20399;-56
2023/08/24 07:20:13;;;;;;;4.55;3.45;;;;;;;21.87;82.83;100221.22;5083706;28;20403;-58
2023/08/24 07:22:39;;;;;;;5.00;3.55;;;;;;;21.96;82.39;100211.59;5081138;28;20126;-59
2023/08/24 07:25:05;;;;;;;4.18;3.60;;;;;;;22.01;80.55;100208.16;5083301;28;20178;-59
2023/08/24 07:27:34;;;;;;;4.68;3.78;;;;;;;22.10;79.98;100212.91;5080486;28;20402;-58
2023/08/24 07:30:01;;;;;;;5.50;4.43;;;;;;;22.18;79.61;100211.69;5083246;28;20044;-59
2023/08/24 07:32:26;;;;;;;5.15;3.30;;;;;;;22.23;78.08;100208.19;5083989;28;20100;-59
2023/08/24 07:34:52;;;;;;;6.47;3.65;;;;;;;22.36;77.44;100205.94;5083855;28;20107;-59
2023/08/24 07:37:18;;;;;;;5.00;3.08;;;;;;;22.48;76.78;100213.97;5080972;28;20533;-59
2023/08/24 07:39:43;;;;;;;3.83;3.28;;;;;;;22.52;75.76;100212.41;5082720;28;20040;-59
2023/08/24 07:42:09;;;;;;;4.07;2.88;;;;;;;22.65;76.44;100208.47;5080171;28;20028;-59
2023/08/24 07:44:34;;;;;;;4.82;3.03;;;;;;;22.79;76.51;100209.72;5082442;28;20048;-59
2023/08/24 07:47:00;;;;;;;3.63;2.90;;;;;;;22.87;76.04;100203.03;5080744;28;20776;-59
2023/08/24 07:49:26;;;;;;;5.45;3.13;;;;;;;22.98;77.33;100207.53;5082430;28;20052;-59
2023/08/24 07:51:51;;;;;;;8.07;3.17;;;;;;;23.11;76.62;100226.13;5081715;28;20150;-60
2023/08/24 07:54:16;;;;;;;5.22;3.17;;;;;;;23.23;72.06;100224.06;5084057;28;20035;-60
2023/08/24 07:56:42;;;;;;;8.68;3.38;;;;;;;23.26;70.95;100226.25;5082568;28;20051;-58
2023/08/24 07:59:07;;;;;;;7.93;3.38;;;;;;;23.36;71.68;100225.56;5080971;28;20122;-58
2023/08/24 08:01:33;;;;;;;5.50;2.90;;;;;;;23.46;72.72;100230.25;5081444;28;20036;-59
2023/08/24 08:04:00;;;;;;;4.95;2.92;;;;;;;23.50;70.63;100226.75;5082732;28;20154;-59
2023/08/24 08:06:26;;;;;;;3.40;2.83;;;;;;;23.55;69.08;100223.28;5080701;28;20045;-59
2023/08/24 08:08:51;;;;;;;8.97;3.77;;;;;;;23.65;69.04;100217.13;5081366;28;20475;-60
2023/08/24 08:11:17;;;;;;;6.13;3.33;;;;;;;23.69;68.24;100223.69;5082389;28;20024;-60
2023/08/24 08:13:43;;;;;;;3.20;2.80;;;;;;;23.74;67.43;100231.88;5080449;28;20483;-56
2023/08/24 08:16:08;;;;;;;5.07;2.78;;;;;;;23.76;68.99;100218.84;5082007;28;20520;-60
2023/08/24 08:18:36;;;;;;;3.53;2.85;;;;;;;23.87;67.55;100226.00;5081886;28;20033;-57
2023/08/24 08:21:08;;;;;;;4.93;3.28;;;;;;;23.94;67.16;100217.63;5082559;28;20040;-58
2023/08/24 08:23:33;;;;;;;6.93;3.13;;;;;;;24.00;66.56;100209.22;5081901;28;20039;-68
2023/08/24 08:25:58;;;;;;;3.88;2.88;;;;;;;24.04;66.50;100210.31;5080374;28;20044;-67
2023/08/24 08:28:24;;;;;;;3.25;2.47;;;;;;;24.17;67.10;100202.78;5082416;28;20040;-67
2023/08/24 08:30:49;;;;;;;9.38;3.55;;;;;;;24.28;67.73;100199.84;5080901;28;20506;-67
2023/08/24 08:33:15;;;;;;;4.82;2.65;;;;;;;24.39;66.70;100205.34;5080969;28;20036;-67
2023/08/24 08:35:40;;;;;;;3.80;2.95;;;;;;;24.51;65.98;100204.03;5082346;28;20039;-67
2023/08/24 08:38:07;;;;;;;4.10;2.70;;;;;;;24.59;66.03;100205.47;5080510;28;20510;-67
2023/08/24 08:40:37;;;;;;;5.75;2.90;;;;;;;24.66;66.34;100189.69;5088590;28;20048;-66
2023/08/24 08:43:02;;;;;;;6.35;3.10;;;;;;;24.77;66.03;100187.78;5091748;28;20067;-66
2023/08/24 08:45:28;;;;;;;6.22;3.10;;;;;;;24.86;65.51;100186.19;5091700;28;20070;-66
2023/08/24 08:48:01;;;;;;;5.57;3.22;;;;;;;24.96;63.87;100178.03;5090409;28;20032;-68
2023/08/24 08:50:27;;;;;;;6.80;2.70;;;;;;;25.04;63.91;100177.56;5091367;28;20051;-67
2023/08/24 08:52:53;;;;;;;3.45;2.90;;;;;;;25.04;63.46;100169.38;5091738;28;20031;-67
2023/08/24 08:55:19;;;;;;;4.50;2.78;;;;;;;25.14;63.75;100158.47;5091467;28;20035;-67
2023/08/24 08:57:48;;;;;;;4.60;2.80;;;;;;;25.27;63.63;100145.41;5091556;28;20096;-68
2023/08/24 09:00:16;;;;;;;3.75;2.72;;;;;;;25.40;63.37;100142.94;5091423;28;20407;-67
2023/08/24 09:02:47;;;;;;;5.57;2.90;;;;;;;25.46;64.09;100132.03;5091560;28;20036;-68
2023/08/24 09:05:14;;;;;;;4.18;2.88;;;;;;;25.57;62.07;100129.03;5091523;28;20028;-67
2023/08/24 09:07:40;;;;;;;4.73;2.90;;;;;;;25.70;62.18;100123.00;5092667;28;20028;-67
2023/08/24 09:10:07;;;;;;;4.90;3.28;;;;;;;25.82;61.23;100124.63;5095229;28;20043;-66
2023/08/24 09:12:33;;;;;;;4.25;2.95;;;;;;;25.96;60.76;100125.69;5095143;28;20039;-67
2023/08/24 09:14:59;;;;;;;4.88;3.03;;;;;;;26.12;60.45;100113.59;5095303;28;20043;-67
2023/08/24 09:17:24;;;;;;;3.95;2.50;;;;;;;26.24;59.76;100110.56;5095119;28;20115;-67
2023/08/24 09:19:53;;;;;;;7.30;2.92;;;;;;;26.32;59.08;100107.25;5094952;28;20044;-67
2023/08/24 09:22:19;;;;;;;3.90;3.10;;;;;;;26.46;57.87;100107.47;5095074;28;20077;-68
2023/08/24 09:24:48;;;;;;;4.15;2.78;;;;;;;26.57;57.64;100091.84;5095211;28;20047;-66
2023/08/24 09:27:18;;;;;;;4.43;2.60;;;;;;;26.74;57.62;100087.63;5077183;28;20043;-65
2023/08/24 09:29:51;;;;;;;5.32;2.80;;;;;;;26.94;57.82;100077.66;5074522;28;20044;-67
2023/08/24 09:32:30;;;;;;;3.28;2.97;;;;;;;27.09;57.03;100071.28;5074695;28;20059;-67
2023/08/24 09:35:02;;;;;;;5.57;3.22;;;;;;;27.29;56.32;100065.63;5074690;28;20479;-68
2023/08/24 09:37:32;;;;;;;5.40;3.17;;;;;;;27.38;57.07;100057.59;5074649;28;20046;-67
2023/08/24 09:40:07;;;;;;;4.18;2.92;;;;;;;27.64;55.74;100053.47;5074426;28;20060;-66
2023/08/24 09:42:41;;;;;;;5.75;3.08;;;;;;;27.82;55.91;100046.47;5085107;28;20055;-67
2023/08/24 09:45:16;;;;;;;10.07;3.30;;;;;;;28.04;55.79;100035.78;5094673;28;20064;-68
2023/08/24 09:47:47;;;;;;;4.70;2.90;;;;;;;28.36;55.42;100035.09;5094770;28;20044;-67
2023/08/24 09:50:12;;;;;;;4.85;2.95;;;;;;;28.64;54.16;100036.03;5094402;28;20042;-67
2023/08/24 09:52:42;;;;;;;4.07;2.72;;;;;;;28.95;52.86;100029.25;5094492;28;20032;-67
2023/08/24 09:55:09;;;;;;;3.78;2.78;;;;;;;29.31;53.03;100022.03;5094497;28;20042;-67
2023/08/24 09:57:37;;;;;;;4.90;3.15;;;;;;;29.57;53.08;100016.06;5094636;28;20104;-67
2023/08/24 10:00:10;;;;;;;4.72;2.72;;;;;;;29.87;50.67;100018.19;5094049;28;20074;-67
2023/08/24 10:02:41;;;;;;;4.75;3.17;;;;;;;30.26;50.09;100012.16;5094501;28;20063;-68
2023/08/24 10:05:08;;;;;;;5.82;3.13;;;;;;;30.61;48.91;100012.41;5089759;28;20043;-65
2023/08/24 10:07:36;;;;;;;4.15;3.10;;;;;;;30.79;47.50;100000.44;5084268;28;20038;-66
2023/08/24 10:10:10;;;;;;;6.75;3.13;;;;;;;31.01;46.37;100005.09;5081247;28;20534;-67
2023/08/24 10:12:41;;;;;;;4.45;3.05;;;;;;;31.21;46.89;100002.94;5081871;28;20089;-67
2023/08/24 10:15:08;;;;;;;10.70;3.63;;;;;;;31.40;46.25;99986.22;5083130;28;20028;-66
2023/08/24 10:17:36;;;;;;;6.63;3.28;;;;;;;31.43;46.40;99986.41;5083225;28;20486;-67
2023/08/24 10:20:05;;;;;;;5.25;3.05;;;;;;;31.85;45.21;99978.59;5084131;28;20069;-66
2023/08/24 10:22:33;;;;;;;4.32;3.22;;;;;;;31.92;44.40;99975.38;5083541;28;20040;-66
2023/08/24 10:24:59;;;;;;;5.53;2.80;;;;;;;32.15;44.15;99965.84;5082526;28;20036;-67
2023/08/24 10:27:27;;;;;;;4.82;2.97;;;;;;;32.31;42.80;99955.13;5082938;28;20503;-66
2023/08/24 10:29:52;;;;;;;4.05;3.13;;;;;;;32.31;43.30;99964.19;5083472;28;20169;-66
2023/08/24 10:32:20;;;;;;;4.43;2.60;;;;;;;32.75;43.28;99950.38;5084873;28;20119;-66
2023/08/24 10:34:46;;;;;;;3.00;2.70;;;;;;;33.15;42.14;99954.50;5082698;28;20510;-67
2023/08/24 10:37:12;;;;;;;5.50;2.80;;;;;;;33.33;41.48;99946.13;5082975;28;20028;-67
2023/08/24 10:39:44;;;;;;;4.70;2.73;;;;;;;33.17;41.53;99938.41;5084065;28;20051;-67
2023/08/24 10:42:13;;;;;;;3.25;2.65;;;;;;;33.66;40.68;99938.81;5083129;28;20494;-67
2023/08/24 10:44:43;;;;;;;3.47;2.80;;;;;;;34.00;39.77;99942.50;5090683;28;20031;-67
2023/08/24 10:47:16;;;;;;;4.50;2.42;;;;;;;34.23;38.83;99935.50;5093336;28;20084;-67
2023/08/24 10:49:42;;;;;;;4.22;2.38;;;;;;;34.46;38.15;99932.38;5093398;28;20471;-66
2023/08/24 10:52:21;;;;;;;4.38;2.60;;;;;;;34.50;38.22;99927.78;5093297;28;20115;-66
2023/08/24 10:54:51;;;;;;;3.85;2.88;;;;;;;34.78;37.70;99923.25;5093746;28;20492;-67
2023/08/24 10:57:24;;;;;;;6.22;2.70;;;;;;;34.96;37.55;99917.53;5093032;28;20137;-66
2023/08/24 11:00:10;;;;;;;3.42;2.55;;;;;;;35.25;37.09;99922.84;5093011;28;20035;-67
2023/08/24 11:02:46;;;;;;;3.30;2.80;;;;;;;35.19;37.32;99926.19;5093274;28;20039;-69
2023/08/24 11:05:17;;;;;;;2.85;2.47;;;;;;;35.27;37.95;99917.75;5093130;28;20387;-68
2023/08/24 11:07:52;;;;;;;4.50;2.63;;;;;;;35.90;36.48;99906.25;5093061;28;20533;-67
2023/08/24 11:10:19;;;;;;;5.13;2.65;;;;;;;36.17;35.82;99901.91;5092894;28;20054;-67
2023/08/24 11:13:04;;;;;;;;;;;;;;;36.22;35.58;99896.13;5093489;28;20093;-67
2023/08/24 11:15:41;;;;;;;4.90;2.87;;;;;;;36.39;35.73;99887.53;5093000;28;19912;-67
2023/08/24 11:18:21;;;;;;;4.47;3.08;;;;;;;36.68;35.28;99888.25;5092443;28;20438;-67
2023/08/24 11:20:48;;;;;;;4.93;2.58;;;;;;;36.84;35.27;99882.72;5092587;28;20122;-67
2023/08/24 11:23:15;;;;;;;5.75;3.25;;;;;;;36.74;35.34;99888.81;5092809;28;20114;-67
2023/08/24 11:25:40;;;;;;;3.72;2.58;;;;;;;37.00;35.02;99882.75;5092699;28;20391;-67
2023/08/24 11:28:06;;;;;;;5.60;2.90;;;;;;;37.30;34.13;99881.09;5092708;28;20032;-67
2023/08/24 11:30:35;;;;;;;3.50;2.55;;;;;;;37.64;33.84;99884.25;5091945;28;20023;-67
2023/08/24 11:33:02;;;;;;;5.55;3.03;;;;;;;37.78;34.18;99887.31;5092611;28;20043;-67
2023/08/24 11:35:28;;;;;;;4.35;2.50;;;;;;;37.74;33.97;99889.22;5092262;28;20486;-67
2023/08/24 11:37:56;;;;;;;3.47;2.80;;;;;;;37.79;33.18;99877.81;5092646;28;20044;-67
2023/08/24 11:40:29;;;;;;;4.78;3.03;;;;;;;37.76;33.70;99878.56;5092311;28;20499;-67
2023/08/24 11:42:57;;;;;;;4.22;2.70;;;;;;;38.17;32.93;99867.88;5092596;28;20610;-67
2023/08/24 11:45:23;;;;;;;5.60;2.80;;;;;;;38.29;32.57;99867.75;5092353;28;20036;-67
2023/08/24 11:47:50;;;;;;;;;;;;;;;38.09;32.96;99857.81;5092870;28;20059;-67
2023/08/24 11:50:16;;;;;;;3.67;2.75;;;;;;;37.93;34.19;99861.47;5092164;28;19915;-67
2023/08/24 11:52:42;;;;;;;3.85;2.80;;;;;;;37.71;33.58;99860.19;5092078;28;20035;-67
2023/08/24 11:55:09;;;;;;;5.20;2.80;;;;;;;37.65;34.11;99855.31;5092380;28;20028;-67
2023/08/24 11:57:35;;;;;;;8.48;3.15;;;;;;;36.78;35.17;99853.63;5092282;28;20652;-67
2023/08/24 12:00:01;;;;;;;3.80;2.80;;;;;;;37.26;35.38;99846.06;5091992;28;20040;-67
2023/08/24 12:02:33;;;;;;;3.47;2.67;;;;;;;37.00;35.34;99835.56;5092367;28;20032;-67
2023/08/24 12:04:59;;;;;;;4.35;3.10;;;;;;;37.19;35.37;99822.53;5092278;28;20459;-67
2023/08/24 12:07:26;;;;;;;4.28;2.72;;;;;;;37.25;35.26;99820.28;5092108;28;20107;-66
2023/08/24 12:09:54;;;;;;;4.55;2.95;;;;;;;36.33;37.03;99811.28;5091891;28;20089;-67
2023/08/24 12:12:23;;;;;;;5.18;3.22;;;;;;;36.24;36.95;99809.81;5091973;28;20044;-67
2023/08/24 12:14:49;;;;;;;4.82;3.22;;;;;;;36.34;37.16;99801.00;5092099;28;20046;-67
2023/08/24 12:17:20;;;;;;;4.50;3.00;;;;;;;36.69;36.87;99799.13;5092067;28;20047;-67
2023/08/24 12:19:57;;;;;;;3.97;2.95;;;;;;;36.49;36.22;99800.22;5091662;28;20101;-67
2023/08/24 12:22:23;;;;;;;4.80;3.22;;;;;;;36.94;36.18;99799.75;5091934;28;20036;-68
2023/08/24 12:24:48;;;;;;;5.03;2.77;;;;;;;37.47;35.42;99802.13;5092048;28;20028;-67
2023/08/24 12:27:24;;;;;;;6.00;3.00;;;;;;;37.92;35.17;99798.72;5092076;28;20123;-66
2023/08/24 12:29:50;;;;;;;6.32;3.15;;;;;;;37.17;35.20;99776.88;5091808;28;20402;-66
2023/08/24 12:32:19;;;;;;;3.85;2.72;;;;;;;37.35;35.52;99774.50;5091833;28;20032;-67
2023/08/24 12:34:45;;;;;;;5.15;2.72;;;;;;;37.50;35.11;99768.09;5091969;28;20053;-67
2023/08/24 12:37:11;;;;;;;4.65;3.03;;;;;;;37.19;36.26;99767.03;5091894;28;20036;-67
2023/08/24 12:39:38;;;;;;;5.35;2.83;;;;;;;37.36;35.56;99770.56;5091527;28;20039;-67
2023/08/24 12:42:04;;;;;;;4.78;3.13;;;;;;;37.52;36.24;99756.63;5091848;28;20081;-67
2023/08/24 12:44:29;;;;;;;4.25;2.85;;;;;;;37.13;35.80;99759.34;5091138;28;20025;-67
2023/08/24 12:46:55;;;;;;;5.23;3.23;;;;;;;37.48;34.78;99760.09;5075556;28;20110;-66
2023/08/24 12:49:20;;;;;;;3.70;2.80;;;;;;;36.85;35.80;99765.84;5075187;28;20032;-67
2023/08/24 12:51:45;;;;;;;5.67;2.77;;;;;;;37.43;35.94;99760.44;5075321;28;20119;-67
2023/08/24 12:54:11;;;;;;;4.53;2.97;;;;;;;37.24;35.07;99748.47;5075481;28;20049;-67
2023/08/24 12:56:38;;;;;;;4.27;2.90;;;;;;;37.65;34.90;99749.75;5075328;28;20060;-67
2023/08/24 12:59:03;;;;;;;4.65;3.15;;;;;;;36.92;34.77;99735.50;5074854;28;20534;-67
2023/08/24 13:01:28;;;;;;;3.50;2.77;;;;;;;37.69;34.86;99756.97;5075086;28;20041;-67
2023/08/24 13:03:54;;;;;;;5.20;3.00;;;;;;;38.45;33.81;99753.59;5075127;28;20048;-67
2023/08/24 13:06:19;;;;;;;3.40;3.00;;;;;;;38.83;33.70;99738.72;5075115;28;20025;-67
2023/08/24 13:08:44;;;;;;;5.80;2.80;;;;;;;39.34;33.18;99739.03;5074857;28;20052;-67
2023/08/24 13:11:11;;;;;;;4.83;3.20;;;;;;;39.70;33.22;99738.66;5075001;28;20037;-67
2023/08/24 13:13:36;;;;;;;5.93;2.95;;;;;;;39.65;31.27;99733.44;5073802;28;20079;-67
2023/08/24 13:16:02;;;;;;;3.20;2.50;;;;;;;40.14;31.57;99736.75;5074850;28;20067;-67
2023/08/24 13:18:27;;;;;;;4.72;2.55;;;;;;;40.02;30.50;99733.41;5074859;28;20407;-68
2023/08/24 13:20:53;;;;;;;5.55;2.88;;;;;;;39.91;31.15;99722.19;5074682;28;20036;-67
2023/08/24 13:23:18;;;;;;;5.47;3.00;;;;;;;40.31;30.87;99720.56;5074842;28;20044;-67
2023/08/24 13:25:43;;;;;;;3.47;2.83;;;;;;;40.52;30.86;99723.53;5074768;28;20833;-67
2023/08/24 13:28:09;;;;;;;3.03;2.73;;;;;;;39.83;30.44;99709.34;5074798;28;20972;-67
2023/08/24 13:30:34;;;;;;;6.75;3.10;;;;;;;40.41;30.59;99717.03;5074400;28;20044;-67
2023/08/24 13:33:00;;;;;;;6.03;3.38;;;;;;;40.39;30.54;99711.06;5074686;28;20052;-67
2023/08/24 13:35:26;;;;;;;3.42;2.70;;;;;;;39.48;31.29;99704.19;5074538;28;20028;-67
2023/08/24 13:37:51;;;;;;;5.45;3.20;;;;;;;38.83;32.53;99696.97;5074572;28;20032;-67
2023/08/24 13:40:16;;;;;;;3.90;2.83;;;;;;;38.19;33.70;99709.84;5074313;28;20064;-67
2023/08/24 13:42:42;;;;;;;3.43;3.07;;;;;;;37.89;34.24;99715.28;5074536;28;20043;-67
2023/08/24 13:45:07;;;;;;;5.33;2.87;;;;;;;36.91;35.71;99722.81;5074433;28;20791;-67
2023/08/24 13:47:33;;;;;;;4.28;2.92;;;;;;;36.65;37.45;99726.16;5074390;28;20044;-67
2023/08/24 13:49:58;;;;;;;3.93;2.80;;;;;;;36.04;37.15;99732.13;5074200;28;20044;-67
2023/08/24 13:52:24;;;;;;;3.87;3.03;;;;;;;35.88;37.42;99737.63;5074284;28;20041;-67
2023/08/24 13:54:49;;;;;;;3.47;3.17;;;;;;;35.32;37.95;99756.97;5073969;28;20032;-67
2023/08/24 13:57:15;;;;;;;3.47;3.10;;;;;;;34.95;39.59;99788.63;5074219;28;20052;-66
2023/08/24 13:59:40;;;;;;;4.87;4.30;;;;;;;34.53;40.82;99814.53;5073994;28;20032;-67
2023/08/24 14:02:06;;;;;;;5.60;4.17;;;;;;;34.31;41.57;99806.66;5074202;28;20462;-67
2023/08/24 14:04:32;;;;;;;3.40;3.10;;;;;;;34.13;41.98;99825.38;5074216;28;20094;-67
2023/08/24 14:06:57;;;;;;;3.90;3.50;;;;;;;34.01;42.50;99844.66;5074017;28;20045;-67
2023/08/24 14:09:22;;;;;;;6.03;3.40;;;;;;;33.60;42.93;99896.00;5073934;28;20051;-67
2023/08/24 14:11:48;;;;;;;6.20;3.63;;;;;;;33.06;44.57;99930.81;5074037;28;20036;-67
2023/08/24 14:14:14;;;;;;;4.23;3.07;;;;;;;33.02;45.29;99950.00;5074033;28;20483;-67
2023/08/24 14:16:40;;;;;;;4.43;3.50;;;;;;;32.82;46.25;99943.22;5073852;28;20036;-67
2023/08/24 14:19:05;;;;;;;7.10;3.40;;;;;;;32.22;48.93;99954.31;5073643;28;20040;-67
2023/08/24 14:21:31;;;;;;;9.83;4.30;;;;;;;31.24;60.91;99950.88;5073702;28;20562;-67
2023/08/24 14:23:56;;;;;;;8.40;3.80;;;;;;;30.39;64.61;99935.50;5073843;28;20674;-67
2023/08/24 14:26:22;;;;;;;5.30;3.80;;;;;;;29.62;69.29;99950.13;5073718;28;20088;-67
2023/08/24 14:28:56;;;;;;;4.97;3.93;;;;;;;28.90;76.30;99945.97;5073440;28;20044;-67
2023/08/24 14:31:23;;;;;;;6.47;4.07;;;;;;;28.57;79.53;99952.59;5073573;28;20047;-67
2023/08/24 14:33:50;;;;;;;8.30;4.72;;;;;;;28.41;76.73;99929.31;5073615;28;20032;-67
2023/08/24 14:36:15;;;;;;;5.43;4.07;;;;;;;28.11;79.34;99910.31;5073434;28;20433;-67
2023/08/24 14:38:41;;;;;;;4.80;3.85;;;;;;;27.99;81.67;99881.75;5073455;28;20037;-67
2023/08/24 14:41:08;;;;;;;4.60;4.18;;;;;;;27.90;82.33;99862.44;5073639;28;20033;-67
2023/08/24 14:43:34;;;;;;;;;;;;;;;27.98;82.25;99856.31;5073836;28;20047;-66
2023/08/24 14:45:59;;;;;;;8.03;4.53;;;;;;;27.12;89.79;99852.00;5073226;28;19908;-68
2023/08/24 14:48:24;;;;;;;5.13;4.35;;;;;;;26.47;94.77;99853.25;5073219;28;20150;-68
2023/08/24 14:50:50;;;;;;;7.38;4.70;;;;;;;26.37;97.96;99853.31;5072974;28;20051;-69
2023/08/24 14:53:16;;;;;;;6.07;5.32;;;;;;;26.42;97.68;99845.09;5073161;28;20040;-68
2023/08/24 14:55:41;;;;;;;6.68;5.38;;;;;;;26.61;96.76;99826.09;5072986;28;20039;-57
2023/08/24 14:58:07;;;;;;;6.63;4.65;;;;;;;26.86;98.89;99799.56;5073037;28;20531;-57
2023/08/24 15:00:33;;;;;;;10.50;5.28;;;;;;;26.79;96.07;99784.31;5072728;28;20507;-51
2023/08/24 15:02:58;;;;;;;26.20;7.20;;;;;;;26.72;97.77;99792.06;5073042;28;20094;-56
2023/08/24 15:05:24;;;;;;;5.65;5.07;;;;;;;26.95;95.62;99784.16;5073615;28;20469;-57
2023/08/24 15:07:50;;;;;;;5.78;4.53;;;;;;;26.96;93.88;99772.94;5076014;28;20399;-59
2023/08/24 15:10:17;;;;;;;7.45;4.80;;;;;;;26.98;93.10;99781.63;5074889;28;20047;-58
2023/08/24 15:12:43;;;;;;;5.30;4.80;;;;;;;26.91;93.75;99773.00;5075774;28;20459;-59
2023/08/24 15:15:09;;;;;;;5.30;4.80;;;;;;;27.01;93.14;99778.34;5075282;28;20442;-60
2023/08/24 15:17:36;;;;;;;6.32;4.85;;;;;;;27.12;93.60;99781.75;5075283;28;20415;-56
2023/08/24 15:20:05;;;;;;;6.57;5.27;;;;;;;27.17;93.11;99783.63;5074366;28;20032;-58
2023/08/24 15:22:30;;;;;;;6.25;4.80;;;;;;;27.14;92.19;99778.75;5073698;28;20285;-59
2023/08/24 15:24:56;;;;;;;8.60;4.80;;;;;;;27.03;92.97;99775.31;5074812;28;20111;-55
2023/08/24 15:27:22;;;;;;;6.20;5.20;;;;;;;27.13;94.10;99772.47;5074269;28;20066;-59
2023/08/24 15:29:47;;;;;;;6.28;4.82;;;;;;;27.09;95.53;99778.81;5074762;28;20028;-57
2023/08/24 15:32:13;;;;;;;5.70;4.72;;;;;;;27.26;95.46;99760.81;5074696;28;20036;-58
2023/08/24 15:34:41;;;;;;;6.63;4.90;;;;;;;27.44;95.23;99752.88;5073729;28;20036;-56
2023/08/24 15:37:06;;;;;;;6.05;5.13;;;;;;;27.47;92.46;99761.31;5073925;28;20557;-55
2023/08/24 15:39:36;;;;;;;6.53;4.97;;;;;;;27.46;92.43;99758.88;5074222;28;20040;-60
2023/08/24 15:42:02;;;;;;;7.03;5.65;;;;;;;27.38;94.20;99765.81;5075118;28;20033;-60
2023/08/24 15:44:27;;;;;;;7.72;5.30;;;;;;;27.37;93.16;99766.13;5075943;28;20084;-60
2023/08/24 15:46:52;;;;;;;6.30;5.63;;;;;;;27.30;91.99;99770.03;5075729;28;20044;-59
2023/08/24 15:49:18;;;;;;;7.22;5.13;;;;;;;27.25;91.33;99772.81;5076150;28;20044;-60